createdAt,value
2023-02-02T00:00:31.834Z,78964.31
2023-02-02T00:03:01.123Z,78990.75
2023-02-02T00:05:30.603Z,78986.13
2023-02-02T00:07:59.635Z,79006.59
2023-02-02T00:10:29.171Z,79010.56
2023-02-02T00:12:59.292Z,79009.91
2023-02-02T00:15:28.640Z,79013.88
2023-02-02T00:17:57.952Z,78999.38
2023-02-02T00:20:28.312Z,79017.88
2023-02-02T00:22:58.747Z,79022.50
2023-02-02T00:25:29.483Z,79004.66
2023-02-02T00:27:59.357Z,79024.47
2023-02-02T00:30:28.699Z,79026.47
2023-02-02T00:32:57.989Z,79027.13
2023-02-02T00:35:27.588Z,79030.44
2023-02-02T00:37:57.096Z,79028.44
2023-02-02T00:40:26.720Z,79031.09
2023-02-02T00:42:55.823Z,79030.44
2023-02-02T00:45:27.174Z,79024.47
2023-02-02T00:47:56.700Z,79024.47
2023-02-02T00:50:26.346Z,79017.19
2023-02-02T00:52:56.013Z,79029.09
2023-02-02T00:55:25.605Z,79013.25
2023-02-02T00:57:55.760Z,78997.38
2023-02-02T01:00:27.625Z,79023.81
2023-02-02T01:02:58.104Z,79033.06
2023-02-02T01:05:27.329Z,79023.81
2023-02-02T01:07:56.547Z,79016.53
2023-02-02T01:10:26.086Z,79034.41
2023-02-02T01:12:56.623Z,79031.09
2023-02-02T01:15:26.370Z,79037.03
2023-02-02T01:17:56.418Z,79020.50
2023-02-02T01:20:26.878Z,79002.00
2023-02-02T01:22:56.461Z,79031.72
2023-02-02T01:25:26.515Z,79034.97
2023-02-02T01:27:57.337Z,79032.91
2023-02-02T01:30:26.797Z,79040.72
2023-02-02T01:32:57.501Z,79034.00
2023-02-02T01:35:27.443Z,79040.69
2023-02-02T01:37:56.971Z,79043.25
2023-02-02T01:40:27.757Z,79056.47
2023-02-02T01:42:57.409Z,79028.66
2023-02-02T01:45:31.531Z,79058.34
2023-02-02T01:48:02.351Z,79055.69
2023-02-02T01:50:36.273Z,79048.47
2023-02-02T01:53:08.488Z,79041.91
2023-02-02T01:55:41.092Z,79034.28
2023-02-02T01:58:19.197Z,79059.47
2023-02-02T02:00:48.975Z,79047.59
2023-02-02T02:03:22.938Z,79044.28
2023-02-02T02:05:58.948Z,79062.81
2023-02-02T02:08:41.000Z,79056.84
2023-02-02T02:11:10.880Z,79078.72
2023-02-02T02:13:58.362Z,79068.13
2023-02-02T02:17:19.388Z,79067.41
2023-02-02T02:20:24.854Z,79078.66
2023-02-02T02:23:58.317Z,79079.34
2023-02-02T02:26:45.520Z,79075.34
2023-02-02T02:29:24.154Z,79074.03
2023-02-02T02:32:03.655Z,79072.06
2023-02-02T02:34:44.142Z,79070.78
2023-02-02T02:37:47.842Z,79075.41
2023-02-02T02:40:39.435Z,79060.84
2023-02-02T02:43:17.543Z,79074.06
2023-02-02T02:45:47.584Z,79068.75
2023-02-02T02:48:18.074Z,79078.66
2023-02-02T02:50:47.652Z,79096.53
2023-02-02T02:53:21.633Z,79072.09
2023-02-02T02:56:20.287Z,79087.97
2023-02-02T02:59:04.283Z,79089.97
2023-02-02T03:01:55.727Z,79101.88
2023-02-02T03:04:54.827Z,79075.38
2023-02-02T03:07:34.320Z,79088.59
2023-02-02T03:10:09.867Z,79089.91
2023-02-02T03:12:51.355Z,79088.50
2023-02-02T03:15:21.389Z,79090.47
2023-02-02T03:17:54.248Z,79093.16
2023-02-02T03:20:23.812Z,79090.41
2023-02-02T03:22:53.036Z,79091.53
2023-02-02T03:25:22.803Z,79088.53
2023-02-02T03:27:53.109Z,79104.81
2023-02-02T03:30:24.689Z,79105.47
2023-02-02T03:32:54.528Z,79106.75
2023-02-02T03:35:24.131Z,79113.13
2023-02-02T03:37:54.226Z,79090.44
2023-02-02T03:40:23.910Z,79100.25
2023-02-02T03:42:53.433Z,79106.16
2023-02-02T03:45:23.690Z,79109.75
2023-02-02T03:47:53.529Z,79106.34
2023-02-02T03:50:23.318Z,79099.19
2023-02-02T03:52:52.707Z,79118.78
2023-02-02T03:55:22.322Z,79122.47
2023-02-02T03:57:51.923Z,79127.47
2023-02-02T04:00:21.793Z,79113.94
2023-02-02T04:02:51.507Z,79105.47
2023-02-02T04:05:20.808Z,79118.28
2023-02-02T04:07:50.287Z,79119.69
2023-02-02T04:10:20.046Z,79098.22
2023-02-02T04:12:49.316Z,79101.72
2023-02-02T04:15:18.617Z,79119.72
2023-02-02T04:17:48.290Z,79113.22
2023-02-02T04:20:17.547Z,79124.97
2023-02-02T04:22:47.069Z,79117.25
2023-02-02T04:25:16.427Z,79128.38
2023-02-02T04:27:45.742Z,79132.97
2023-02-02T04:30:15.324Z,79141.06
2023-02-02T04:32:44.655Z,79148.91
2023-02-02T04:35:14.318Z,79164.00
2023-02-02T04:37:43.626Z,79147.75
2023-02-02T04:40:13.921Z,79159.66
2023-02-02T04:42:43.783Z,79156.88
2023-02-02T04:45:13.316Z,79169.72
2023-02-02T04:47:43.417Z,79161.84
2023-02-02T04:50:13.605Z,79187.03
2023-02-02T04:52:44.094Z,79187.66
2023-02-02T04:55:13.725Z,79185.88
2023-02-02T04:57:43.624Z,79189.00
2023-02-02T05:00:15.038Z,79193.69
2023-02-02T05:02:44.759Z,79174.41
2023-02-02T05:05:15.704Z,79200.00
2023-02-02T05:07:45.210Z,79200.09
2023-02-02T05:10:14.462Z,79207.72
2023-02-02T05:12:43.766Z,79207.31
2023-02-02T05:15:13.259Z,79206.16
2023-02-02T05:17:43.038Z,79210.47
2023-02-02T05:20:12.906Z,79194.63
2023-02-02T05:22:43.037Z,79211.28
2023-02-02T05:25:12.382Z,79201.91
2023-02-02T05:27:48.669Z,79180.19
2023-02-02T05:30:18.865Z,79208.78
2023-02-02T05:32:48.429Z,79186.94
2023-02-02T05:35:17.934Z,79192.22
2023-02-02T05:37:47.649Z,79204.06
2023-02-02T05:40:17.138Z,79209.91
2023-02-02T05:42:50.811Z,79197.78
2023-02-02T05:45:20.251Z,79206.00
2023-02-02T05:47:50.191Z,79215.75
2023-02-02T05:50:22.159Z,79191.19
2023-02-02T05:53:04.122Z,79219.78
2023-02-02T05:55:33.540Z,79206.97
2023-02-02T05:58:02.959Z,79195.00
2023-02-02T06:00:32.413Z,79213.00
2023-02-02T06:03:01.833Z,79197.34
2023-02-02T06:05:31.485Z,79211.47
2023-02-02T06:08:00.962Z,79180.03
2023-02-02T06:10:32.470Z,79213.63
2023-02-02T06:13:02.075Z,79195.53
2023-02-02T06:15:34.287Z,79210.94
2023-02-02T06:18:03.884Z,79205.97
2023-02-02T06:20:33.344Z,79195.84
2023-02-02T06:23:02.974Z,79203.41
2023-02-02T06:25:32.183Z,79204.03
2023-02-02T06:28:03.142Z,79206.31
2023-02-02T06:30:32.850Z,79198.47
2023-02-02T06:33:02.159Z,79192.97
2023-02-02T06:35:31.712Z,79172.84
2023-02-02T06:38:01.002Z,79202.03
2023-02-02T06:40:30.656Z,79195.13
2023-02-02T06:43:04.391Z,79191.09
2023-02-02T06:45:33.898Z,79183.72
2023-02-02T06:48:05.263Z,79165.47
2023-02-02T06:50:35.037Z,79181.13
2023-02-02T06:53:04.321Z,79157.06
2023-02-02T06:55:36.435Z,79180.31
2023-02-02T06:58:05.996Z,79159.97
2023-02-02T07:00:37.978Z,79174.44
2023-02-02T07:03:07.448Z,79156.09
2023-02-02T07:05:36.698Z,79153.09
2023-02-02T07:08:06.476Z,79160.63
2023-02-02T07:11:14.000Z,79147.69
2023-02-02T07:13:25.479Z,79144.03
2023-02-02T07:15:55.651Z,79129.34
2023-02-02T07:18:25.231Z,79144.09
2023-02-02T07:20:54.895Z,79147.00
2023-02-02T07:23:24.105Z,79136.69
2023-02-02T07:26:11.357Z,79133.47
2023-02-02T07:28:40.958Z,79124.84
2023-02-02T07:31:22.294Z,79129.47
2023-02-02T07:33:52.914Z,79098.09
2023-02-02T07:36:25.120Z,79110.88
2023-02-02T07:38:55.848Z,79057.69
2023-02-02T07:41:26.222Z,79107.22
2023-02-02T07:43:56.089Z,79090.59
2023-02-02T07:46:25.674Z,79102.53
2023-02-02T07:48:58.989Z,79092.97
2023-02-02T07:51:29.184Z,79081.84
2023-02-02T07:54:00.450Z,79086.28
2023-02-02T07:56:29.840Z,79072.75
2023-02-02T07:58:59.710Z,79070.78
2023-02-02T08:01:30.190Z,79086.75
2023-02-02T08:04:04.507Z,79090.31
2023-02-02T08:06:39.408Z,79076.63
2023-02-02T08:09:10.918Z,79083.97
2023-02-02T08:11:40.945Z,79093.31
2023-02-02T08:14:13.533Z,79083.88
2023-02-02T08:16:43.244Z,79072.63
2023-02-02T08:19:13.266Z,79083.03
2023-02-02T08:21:42.658Z,79082.03
2023-02-02T08:24:12.242Z,79077.47
2023-02-02T08:26:41.610Z,79085.16
2023-02-02T08:29:12.330Z,79080.59
2023-02-02T08:31:45.355Z,79083.91
2023-02-02T08:34:15.461Z,79076.47
2023-02-02T08:36:44.442Z,79068.09
2023-02-02T08:39:15.370Z,79070.81
2023-02-02T08:41:46.472Z,79063.59
2023-02-02T08:44:17.592Z,79058.06
2023-02-02T08:46:49.052Z,79055.63
2023-02-02T08:49:18.496Z,79041.66
2023-02-02T08:51:48.032Z,79070.00
2023-02-02T08:54:17.369Z,79055.03
2023-02-02T08:56:46.856Z,79067.44
2023-02-02T08:59:16.027Z,79068.69
2023-02-02T09:01:45.457Z,79049.03
2023-02-02T09:04:19.998Z,79071.53
2023-02-02T09:06:49.755Z,79071.59
2023-02-02T09:09:19.197Z,79069.53
2023-02-02T09:11:48.695Z,79051.50
2023-02-02T09:14:17.895Z,79046.16
2023-02-02T09:16:47.632Z,79036.50
2023-02-02T09:19:16.962Z,79062.97
2023-02-02T09:21:51.593Z,79057.22
2023-02-02T09:24:21.028Z,79035.91
2023-02-02T09:26:50.758Z,79034.06
2023-02-02T09:29:20.399Z,79054.91
2023-02-02T09:31:49.622Z,79030.41
2023-02-02T09:34:19.613Z,79051.81
2023-02-02T09:36:49.376Z,79039.41
2023-02-02T09:39:20.520Z,79047.38
2023-02-02T09:42:22.499Z,79043.00
2023-02-02T09:45:20.845Z,79023.63
2023-02-02T09:48:17.364Z,79038.88
2023-02-02T09:50:47.033Z,79029.84
2023-02-02T09:53:55.994Z,79024.63
2023-02-02T09:56:42.114Z,79026.91
2023-02-02T09:59:24.690Z,79000.19
2023-02-02T10:01:57.828Z,79007.63
2023-02-02T10:04:39.739Z,79016.09
2023-02-02T10:07:15.334Z,79019.50
2023-02-02T10:10:02.722Z,79022.16
2023-02-02T10:12:49.628Z,79020.88
2023-02-02T10:15:37.180Z,79018.31
2023-02-02T10:18:21.281Z,79019.16
2023-02-02T10:21:02.999Z,79005.09
2023-02-02T10:23:36.993Z,79012.81
2023-02-02T10:26:22.055Z,79011.09
2023-02-02T10:29:01.509Z,79010.25
2023-02-02T10:31:44.150Z,79000.66
2023-02-02T10:34:43.390Z,79000.09
2023-02-02T10:37:44.312Z,78996.66
2023-02-02T10:40:18.120Z,79005.47
2023-02-02T10:43:20.464Z,78993.66
2023-02-02T10:45:53.293Z,79001.84
2023-02-02T10:48:33.751Z,78999.69
2023-02-02T10:51:28.481Z,79003.91
2023-02-02T10:54:01.594Z,78997.88
2023-02-02T10:56:36.322Z,79014.47
2023-02-02T10:59:12.188Z,79016.25
2023-02-02T11:01:42.129Z,79014.44
2023-02-02T11:04:31.046Z,78994.84
2023-02-02T11:07:01.711Z,79006.75
2023-02-02T11:09:41.136Z,78991.09
2023-02-02T11:12:38.415Z,79006.94
2023-02-02T11:15:23.998Z,79011.59
2023-02-02T11:17:53.467Z,78992.63
2023-02-02T11:20:36.337Z,79002.59
2023-02-02T11:23:10.828Z,78993.41
2023-02-02T11:25:40.991Z,78968.38
2023-02-02T11:28:20.523Z,79001.34
2023-02-02T11:30:53.560Z,78992.19
2023-02-02T11:33:36.541Z,79014.16
2023-02-02T11:36:24.308Z,79017.63
2023-02-02T11:39:17.837Z,79008.41
2023-02-02T11:41:47.534Z,79007.78
2023-02-02T11:44:28.222Z,79000.03
2023-02-02T11:46:58.767Z,78992.84
2023-02-02T11:49:28.792Z,79012.03
2023-02-02T11:52:08.638Z,79016.09
2023-02-02T11:54:39.903Z,79013.50
2023-02-02T11:57:17.755Z,79013.53
2023-02-02T11:59:49.904Z,78979.19
2023-02-02T12:02:24.947Z,79008.31
2023-02-02T12:05:14.796Z,79002.38
2023-02-02T12:07:45.960Z,79015.66
2023-02-02T12:10:18.597Z,79009.69
2023-02-02T12:13:02.329Z,78995.16
2023-02-02T12:16:09.197Z,79012.31
2023-02-02T12:18:50.386Z,79003.72
2023-02-02T12:21:23.553Z,79013.66
2023-02-02T12:24:18.183Z,79014.34
2023-02-02T12:26:58.297Z,78999.16
2023-02-02T12:30:01.291Z,79019.66
2023-02-02T12:32:47.036Z,79017.69
2023-02-02T12:35:49.801Z,79015.06
2023-02-02T12:38:38.137Z,79017.72
2023-02-02T12:41:44.267Z,79026.34
2023-02-02T12:44:39.062Z,79024.34
2023-02-02T12:47:25.936Z,79014.44
2023-02-02T12:50:37.667Z,79018.44
2023-02-02T12:53:24.876Z,79011.13
2023-02-02T12:56:21.761Z,79008.50
2023-02-02T12:59:20.804Z,79007.13
2023-02-02T13:02:05.480Z,79019.66
2023-02-02T13:05:06.422Z,79026.94
2023-02-02T13:07:44.475Z,79036.25
2023-02-02T13:10:32.343Z,79026.34
2023-02-02T13:13:13.465Z,79034.97
2023-02-02T13:15:56.851Z,79031.69
2023-02-02T13:18:36.564Z,79029.75
2023-02-02T13:21:16.453Z,79037.69
2023-02-02T13:24:00.281Z,79016.53
2023-02-02T13:26:43.572Z,79033.72
2023-02-02T13:29:13.230Z,79034.34
2023-02-02T13:31:48.847Z,79029.69
2023-02-02T13:34:24.838Z,79036.28
2023-02-02T13:37:38.191Z,79040.91
2023-02-02T13:40:33.148Z,79021.00
2023-02-02T13:43:21.134Z,79042.19
2023-02-02T13:46:06.187Z,79045.47
2023-02-02T13:49:03.265Z,79055.38
2023-02-02T13:51:32.790Z,79053.41
2023-02-02T13:54:35.811Z,79058.69
2023-02-02T13:57:36.166Z,79061.94
2023-02-02T14:00:23.921Z,79059.31
2023-02-02T14:03:10.240Z,79061.91
2023-02-02T14:05:42.871Z,79046.69
2023-02-02T14:08:21.042Z,79064.59
2023-02-02T14:10:56.659Z,79069.22
